sensor_id;sensor_type;location;lat;lon;timestamp;P1;durP1;ratioP1;P2;durP2;ratioP2
51491;SDS011;37569;50.548;8.778;2023-10-09T00:03:05;9.2;;;5.4;;
51491;SDS011;37569;50.548;8.778;2023-10-09T00:08:06;7.6;;;5;;
51491;SDS011;37569;50.548;8.778;2023-10-09T00:13:06;8.5;;;5.6;;
51491;SDS011;37569;50.548;8.778;2023-10-09T00:18:07;6.9;;;5.1;;
51491;SDS011;37569;50.548;8.778;2023-10-09T00:23:07;10.4;;;5.9;;
51491;SDS011;37569;50.548;8.778;2023-10-09T00:28:08;9.5;;;6.2;;
51491;SDS011;37569;50.548;8.778;2023-10-09T00:33:08;9.9;;;5.9;;
51491;SDS011;37569;50.548;8.778;2023-10-09T00:38:09;9;;;5.5;;
51491;SDS011;37569;50.548;8.778;2023-10-09T00:43:09;8.8;;;5.6;;
51491;SDS011;37569;50.548;8.778;2023-10-09T00:48:10;7.3;;;5.1;;
51491;SDS011;37569;50.548;8.778;2023-10-09T00:53:10;8;;;5.7;;
51491;SDS011;37569;50.548;8.778;2023-10-09T00:58:12;7.6;;;5.6;;
51491;SDS011;37569;50.548;8.778;2023-10-09T01:03:12;9.8;;;5.9;;
51491;SDS011;37569;50.548;8.778;2023-10-09T01:08:12;7.5;;;5;;
51491;SDS011;37569;50.548;8.778;2023-10-09T01:13:13;8.9;;;4.8;;
51491;SDS011;37569;50.548;8.778;2023-10-09T01:18:13;6.2;;;4.6;;
51491;SDS011;37569;50.548;8.778;2023-10-09T01:23:14;8.3;;;4.4;;
51491;SDS011;37569;50.548;8.778;2023-10-09T01:28:14;6.4;;;4.5;;
51491;SDS011;37569;50.548;8.778;2023-10-09T01:33:15;5.8;;;4.2;;
51491;SDS011;37569;50.548;8.778;2023-10-09T01:38:15;7.2;;;4.5;;
51491;SDS011;37569;50.548;8.778;2023-10-09T01:43:16;6.6;;;4;;
51491;SDS011;37569;50.548;8.778;2023-10-09T01:48:16;6.5;;;4.3;;
51491;SDS011;37569;50.548;8.778;2023-10-09T01:53:17;6.4;;;4.1;;
51491;SDS011;37569;50.548;8.778;2023-10-09T01:58:17;5.4;;;4.4;;
51491;SDS011;37569;50.548;8.778;2023-10-09T02:03:18;6.1;;;4.2;;
51491;SDS011;37569;50.548;8.778;2023-10-09T02:08:19;6.3;;;4.6;;
51491;SDS011;37569;50.548;8.778;2023-10-09T02:13:19;6.9;;;4.7;;
51491;SDS011;37569;50.548;8.778;2023-10-09T02:18:20;8.3;;;4.9;;
51491;SDS011;37569;50.548;8.778;2023-10-09T02:23:20;6.7;;;4.7;;
51491;SDS011;37569;50.548;8.778;2023-10-09T02:28:21;8.4;;;4.7;;
51491;SDS011;37569;50.548;8.778;2023-10-09T02:33:21;6.5;;;4.1;;
51491;SDS011;37569;50.548;8.778;2023-10-09T02:38:22;7.6;;;4.6;;
51491;SDS011;37569;50.548;8.778;2023-10-09T02:43:22;7.6;;;4.6;;
51491;SDS011;37569;50.548;8.778;2023-10-09T02:48:23;7.7;;;5;;
51491;SDS011;37569;50.548;8.778;2023-10-09T02:53:23;6.9;;;5;;
51491;SDS011;37569;50.548;8.778;2023-10-09T02:58:24;7.2;;;4.9;;
51491;SDS011;37569;50.548;8.778;2023-10-09T03:03:25;9.4;;;4.8;;
51491;SDS011;37569;50.548;8.778;2023-10-09T03:08:25;7.9;;;4.6;;
51491;SDS011;37569;50.548;8.778;2023-10-09T03:13:26;7.1;;;4.7;;
51491;SDS011;37569;50.548;8.778;2023-10-09T03:18:26;9.7;;;4.8;;
51491;SDS011;37569;50.548;8.778;2023-10-09T03:23:27;6.8;;;4.7;;
51491;SDS011;37569;50.548;8.778;2023-10-09T03:28:27;7.5;;;4.9;;
51491;SDS011;37569;50.548;8.778;2023-10-09T03:33:28;7.7;;;4.6;;
51491;SDS011;37569;50.548;8.778;2023-10-09T03:38:28;10;;;5.5;;
51491;SDS011;37569;50.548;8.778;2023-10-09T03:43:29;7.7;;;4.5;;
51491;SDS011;37569;50.548;8.778;2023-10-09T03:48:29;8;;;4.9;;
51491;SDS011;37569;50.548;8.778;2023-10-09T03:53:30;8.7;;;5;;
51491;SDS011;37569;50.548;8.778;2023-10-09T03:58:31;9.4;;;6.1;;
51491;SDS011;37569;50.548;8.778;2023-10-09T04:03:31;8;;;5.2;;
51491;SDS011;37569;50.548;8.778;2023-10-09T04:08:31;10;;;5.5;;
51491;SDS011;37569;50.548;8.778;2023-10-09T04:13:32;8.2;;;5.3;;
51491;SDS011;37569;50.548;8.778;2023-10-09T04:18:32;9.6;;;5.5;;
51491;SDS011;37569;50.548;8.778;2023-10-09T04:23:33;9.2;;;5.4;;
51491;SDS011;37569;50.548;8.778;2023-10-09T04:28:34;9;;;5.3;;
51491;SDS011;37569;50.548;8.778;2023-10-09T04:33:34;13.7;;;6.5;;
51491;SDS011;37569;50.548;8.778;2023-10-09T04:38:35;12.7;;;6.1;;
51491;SDS011;37569;50.548;8.778;2023-10-09T04:43:35;15.3;;;7.5;;
51491;SDS011;37569;50.548;8.778;2023-10-09T04:48:36;27.5;;;11.2;;
51491;SDS011;37569;50.548;8.778;2023-10-09T04:53:36;31.2;;;12.1;;
51491;SDS011;37569;50.548;8.778;2023-10-09T04:58:37;26.9;;;12.4;;
51491;SDS011;37569;50.548;8.778;2023-10-09T05:03:38;26.7;;;11.4;;
51491;SDS011;37569;50.548;8.778;2023-10-09T05:08:38;20.9;;;11;;
51491;SDS011;37569;50.548;8.778;2023-10-09T05:13:38;25.7;;;11.5;;
51491;SDS011;37569;50.548;8.778;2023-10-09T05:18:39;21.1;;;11.2;;
51491;SDS011;37569;50.548;8.778;2023-10-09T05:23:39;23.3;;;11.5;;
51491;SDS011;37569;50.548;8.778;2023-10-09T05:28:40;22.8;;;10.5;;
51491;SDS011;37569;50.548;8.778;2023-10-09T05:33:40;16.4;;;9;;
51491;SDS011;37569;50.548;8.778;2023-10-09T05:38:41;20.2;;;9.7;;
51491;SDS011;37569;50.548;8.778;2023-10-09T05:43:41;23.2;;;10.7;;
51491;SDS011;37569;50.548;8.778;2023-10-09T05:48:42;22.3;;;11.2;;
51491;SDS011;37569;50.548;8.778;2023-10-09T05:53:43;20.5;;;10.8;;
51491;SDS011;37569;50.548;8.778;2023-10-09T05:58:43;20.5;;;11.5;;
51491;SDS011;37569;50.548;8.778;2023-10-09T06:03:44;18.9;;;10.5;;
51491;SDS011;37569;50.548;8.778;2023-10-09T06:08:44;23.8;;;12.8;;
51491;SDS011;37569;50.548;8.778;2023-10-09T06:13:45;23.6;;;12.3;;
51491;SDS011;37569;50.548;8.778;2023-10-09T06:18:46;22.2;;;12.6;;
51491;SDS011;37569;50.548;8.778;2023-10-09T06:23:46;21.8;;;13;;
51491;SDS011;37569;50.548;8.778;2023-10-09T06:28:46;23.6;;;13.5;;
51491;SDS011;37569;50.548;8.778;2023-10-09T06:33:47;25.3;;;13;;
51491;SDS011;37569;50.548;8.778;2023-10-09T06:38:47;22.6;;;12.7;;
51491;SDS011;37569;50.548;8.778;2023-10-09T06:43:48;22.8;;;13.3;;
51491;SDS011;37569;50.548;8.778;2023-10-09T06:48:48;26.2;;;13.7;;
51491;SDS011;37569;50.548;8.778;2023-10-09T06:53:49;31.3;;;13.7;;
51491;SDS011;37569;50.548;8.778;2023-10-09T06:58:50;31.4;;;13.2;;
51491;SDS011;37569;50.548;8.778;2023-10-09T07:03:50;60.3;;;13.7;;
51491;SDS011;37569;50.548;8.778;2023-10-09T07:08:51;29.4;;;13.3;;
51491;SDS011;37569;50.548;8.778;2023-10-09T07:13:51;68.7;;;15;;
51491;SDS011;37569;50.548;8.778;2023-10-09T07:18:52;47.1;;;13.5;;
51491;SDS011;37569;50.548;8.778;2023-10-09T07:23:52;37;;;15;;
51491;SDS011;37569;50.548;8.778;2023-10-09T07:28:53;32.9;;;14.1;;
51491;SDS011;37569;50.548;8.778;2023-10-09T07:33:53;24.3;;;14;;
51491;SDS011;37569;50.548;8.778;2023-10-09T07:38:54;39.9;;;13.5;;
51491;SDS011;37569;50.548;8.778;2023-10-09T07:43:55;33.5;;;13;;
51491;SDS011;37569;50.548;8.778;2023-10-09T07:48:56;23;;;12.9;;
51491;SDS011;37569;50.548;8.778;2023-10-09T07:53:56;22.4;;;13.3;;
51491;SDS011;37569;50.548;8.778;2023-10-09T07:58:56;23.4;;;13.2;;
51491;SDS011;37569;50.548;8.778;2023-10-09T08:03:57;21.6;;;13.7;;
51491;SDS011;37569;50.548;8.778;2023-10-09T08:08:58;21.3;;;14.4;;
51491;SDS011;37569;50.548;8.778;2023-10-09T08:13:58;20.7;;;14.1;;
51491;SDS011;37569;50.548;8.778;2023-10-09T08:18:59;21.4;;;14.1;;
51491;SDS011;37569;50.548;8.778;2023-10-09T08:23:59;21;;;14.6;;
51491;SDS011;37569;50.548;8.778;2023-10-09T08:29:00;19.8;;;13.6;;
51491;SDS011;37569;50.548;8.778;2023-10-09T08:34:01;18.9;;;12.9;;
51491;SDS011;37569;50.548;8.778;2023-10-09T08:39:01;22.6;;;17.3;;
51491;SDS011;37569;50.548;8.778;2023-10-09T08:44:02;18;;;13.7;;
51491;SDS011;37569;50.548;8.778;2023-10-09T08:49:02;19.8;;;13.5;;
51491;SDS011;37569;50.548;8.778;2023-10-09T08:54:03;18.5;;;12.9;;
51491;SDS011;37569;50.548;8.778;2023-10-09T08:59:04;21.6;;;13.8;;
51491;SDS011;37569;50.548;8.778;2023-10-09T09:04:05;21.1;;;13;;
51491;SDS011;37569;50.548;8.778;2023-10-09T09:09:09;19.6;;;12.6;;
51491;SDS011;37569;50.548;8.778;2023-10-09T09:14:06;15.8;;;11.9;;
51491;SDS011;37569;50.548;8.778;2023-10-09T09:19:07;17.2;;;11.5;;
51491;SDS011;37569;50.548;8.778;2023-10-09T09:24:08;19.1;;;10.9;;
51491;SDS011;37569;50.548;8.778;2023-10-09T09:29:08;18.6;;;11;;
51491;SDS011;37569;50.548;8.778;2023-10-09T09:34:08;21.7;;;12.2;;
51491;SDS011;37569;50.548;8.778;2023-10-09T09:39:09;15.3;;;10.8;;
51491;SDS011;37569;50.548;8.778;2023-10-09T09:44:10;17;;;10.7;;
51491;SDS011;37569;50.548;8.778;2023-10-09T09:49:11;17.6;;;10.9;;
51491;SDS011;37569;50.548;8.778;2023-10-09T09:54:11;16.7;;;10.6;;
51491;SDS011;37569;50.548;8.778;2023-10-09T09:59:12;18;;;10.8;;
51491;SDS011;37569;50.548;8.778;2023-10-09T10:04:15;19.4;;;11;;
51491;SDS011;37569;50.548;8.778;2023-10-09T10:09:27;14;;;10;;
51491;SDS011;37569;50.548;8.778;2023-10-09T10:14:14;15.8;;;11.4;;
51491;SDS011;37569;50.548;8.778;2023-10-09T10:19:15;18.4;;;12.4;;
51491;SDS011;37569;50.548;8.778;2023-10-09T10:24:47;17.3;;;13;;
51491;SDS011;37569;50.548;8.778;2023-10-09T10:29:17;16.5;;;11.4;;
51491;SDS011;37569;50.548;8.778;2023-10-09T10:34:17;16.4;;;11;;
51491;SDS011;37569;50.548;8.778;2023-10-09T10:39:18;16.6;;;11.4;;
51491;SDS011;37569;50.548;8.778;2023-10-09T10:44:26;16.1;;;11.1;;
51491;SDS011;37569;50.548;8.778;2023-10-09T10:49:19;15.4;;;10.4;;
51491;SDS011;37569;50.548;8.778;2023-10-09T10:54:21;15.7;;;10.4;;
51491;SDS011;37569;50.548;8.778;2023-10-09T10:59:21;16.3;;;9.9;;
51491;SDS011;37569;50.548;8.778;2023-10-09T11:04:22;16.3;;;9.7;;
51491;SDS011;37569;50.548;8.778;2023-10-09T11:09:22;13.8;;;9.3;;
51491;SDS011;37569;50.548;8.778;2023-10-09T11:14:23;16;;;9.5;;
51491;SDS011;37569;50.548;8.778;2023-10-09T11:19:25;18;;;9.5;;
51491;SDS011;37569;50.548;8.778;2023-10-09T11:24:25;13.5;;;8.7;;
51491;SDS011;37569;50.548;8.778;2023-10-09T11:29:25;15.9;;;9.2;;
51491;SDS011;37569;50.548;8.778;2023-10-09T11:34:27;13.9;;;8.3;;
51491;SDS011;37569;50.548;8.778;2023-10-09T11:39:28;15;;;8.5;;
51491;SDS011;37569;50.548;8.778;2023-10-09T11:44:34;15.6;;;8.5;;
51491;SDS011;37569;50.548;8.778;2023-10-09T11:49:28;14.8;;;7.6;;
51491;SDS011;37569;50.548;8.778;2023-10-09T11:54:29;11.7;;;7.4;;
51491;SDS011;37569;50.548;8.778;2023-10-09T11:59:30;12.3;;;6.8;;
51491;SDS011;37569;50.548;8.778;2023-10-09T12:04:31;12.3;;;7.5;;
51491;SDS011;37569;50.548;8.778;2023-10-09T12:09:32;11.1;;;6.9;;
51491;SDS011;37569;50.548;8.778;2023-10-09T12:11:18;13;;;7.5;;
51491;SDS011;37569;50.548;8.778;2023-10-09T12:16:19;11.6;;;6.9;;
51491;SDS011;37569;50.548;8.778;2023-10-09T12:21:20;11.6;;;7.5;;
51491;SDS011;37569;50.548;8.778;2023-10-09T12:26:21;14;;;6.5;;
51491;SDS011;37569;50.548;8.778;2023-10-09T12:31:21;13.1;;;7.1;;
51491;SDS011;37569;50.548;8.778;2023-10-09T12:36:22;10.9;;;6.4;;
51491;SDS011;37569;50.548;8.778;2023-10-09T12:41:23;11.2;;;5.9;;
51491;SDS011;37569;50.548;8.778;2023-10-09T12:46:16;9.5;;;6.2;;
51491;SDS011;37569;50.548;8.778;2023-10-09T12:51:17;10.7;;;7.2;;
51491;SDS011;37569;50.548;8.778;2023-10-09T12:56:18;12.2;;;8.1;;
51491;SDS011;37569;50.548;8.778;2023-10-09T13:01:19;9.1;;;5.8;;
51491;SDS011;37569;50.548;8.778;2023-10-09T13:06:19;11.5;;;6;;
51491;SDS011;37569;50.548;8.778;2023-10-09T13:11:49;13.1;;;7.9;;
51491;SDS011;37569;50.548;8.778;2023-10-09T13:16:50;12.7;;;7.5;;
51491;SDS011;37569;50.548;8.778;2023-10-09T13:21:50;18.7;;;10.1;;
51491;SDS011;37569;50.548;8.778;2023-10-09T13:26:51;27.8;;;16;;
51491;SDS011;37569;50.548;8.778;2023-10-09T13:31:52;21.9;;;11.8;;
51491;SDS011;37569;50.548;8.778;2023-10-09T13:36:53;9.9;;;5.9;;
51491;SDS011;37569;50.548;8.778;2023-10-09T13:41:55;15.1;;;8.8;;
51491;SDS011;37569;50.548;8.778;2023-10-09T13:46:55;11;;;6.4;;
51491;SDS011;37569;50.548;8.778;2023-10-09T13:51:56;9.5;;;6.5;;
51491;SDS011;37569;50.548;8.778;2023-10-09T13:56:57;12.9;;;6.9;;
51491;SDS011;37569;50.548;8.778;2023-10-09T14:01:58;12.6;;;6.8;;
51491;SDS011;37569;50.548;8.778;2023-10-09T14:06:59;16.3;;;9.3;;
51491;SDS011;37569;50.548;8.778;2023-10-09T14:12:00;14;;;7.6;;
51491;SDS011;37569;50.548;8.778;2023-10-09T14:17:01;13.1;;;7.9;;
51491;SDS011;37569;50.548;8.778;2023-10-09T14:22:02;13.2;;;7.4;;
51491;SDS011;37569;50.548;8.778;2023-10-09T14:27:03;13.1;;;7.6;;
51491;SDS011;37569;50.548;8.778;2023-10-09T14:32:04;10.4;;;6.6;;
51491;SDS011;37569;50.548;8.778;2023-10-09T14:37:04;12.7;;;7.4;;
51491;SDS011;37569;50.548;8.778;2023-10-09T14:42:05;13.1;;;7.9;;
51491;SDS011;37569;50.548;8.778;2023-10-09T14:47:06;10.3;;;5.8;;
51491;SDS011;37569;50.548;8.778;2023-10-09T14:52:07;8.3;;;5.2;;
51491;SDS011;37569;50.548;8.778;2023-10-09T14:57:08;11.4;;;6;;
51491;SDS011;37569;50.548;8.778;2023-10-09T15:02:09;9.4;;;5;;
51491;SDS011;37569;50.548;8.778;2023-10-09T15:07:10;7.7;;;4.9;;
51491;SDS011;37569;50.548;8.778;2023-10-09T15:12:11;8.1;;;5.1;;
51491;SDS011;37569;50.548;8.778;2023-10-09T15:17:12;9.1;;;5.4;;
51491;SDS011;37569;50.548;8.778;2023-10-09T15:22:13;9.2;;;5.2;;
51491;SDS011;37569;50.548;8.778;2023-10-09T15:27:14;8.9;;;5.4;;
51491;SDS011;37569;50.548;8.778;2023-10-09T15:32:15;7.8;;;5.2;;
51491;SDS011;37569;50.548;8.778;2023-10-09T15:37:16;8.7;;;5;;
51491;SDS011;37569;50.548;8.778;2023-10-09T15:42:17;8.9;;;5.2;;
51491;SDS011;37569;50.548;8.778;2023-10-09T15:47:17;7.3;;;4.8;;
51491;SDS011;37569;50.548;8.778;2023-10-09T15:52:18;7.9;;;4.9;;
51491;SDS011;37569;50.548;8.778;2023-10-09T15:57:19;8.2;;;4.8;;
51491;SDS011;37569;50.548;8.778;2023-10-09T16:02:20;9.3;;;5.2;;
51491;SDS011;37569;50.548;8.778;2023-10-09T16:07:21;10.4;;;4.8;;
51491;SDS011;37569;50.548;8.778;2023-10-09T16:12:22;8.1;;;4.9;;
51491;SDS011;37569;50.548;8.778;2023-10-09T16:17:23;7.8;;;5.2;;
51491;SDS011;37569;50.548;8.778;2023-10-09T16:22:24;10.4;;;5.1;;
51491;SDS011;37569;50.548;8.778;2023-10-09T16:27:25;10.5;;;5.3;;
51491;SDS011;37569;50.548;8.778;2023-10-09T16:32:25;10.6;;;5.6;;
51491;SDS011;37569;50.548;8.778;2023-10-09T16:37:26;10.4;;;5.8;;
51491;SDS011;37569;50.548;8.778;2023-10-09T16:42:27;12.8;;;5.6;;
51491;SDS011;37569;50.548;8.778;2023-10-09T16:47:28;9.5;;;5.4;;
51491;SDS011;37569;50.548;8.778;2023-10-09T16:52:29;12.3;;;6.3;;
51491;SDS011;37569;50.548;8.778;2023-10-09T16:57:30;10.3;;;5.8;;
51491;SDS011;37569;50.548;8.778;2023-10-09T17:02:31;10.2;;;5.9;;
51491;SDS011;37569;50.548;8.778;2023-10-09T17:07:31;9.5;;;5.5;;
51491;SDS011;37569;50.548;8.778;2023-10-09T17:12:32;8.9;;;5.3;;
51491;SDS011;37569;50.548;8.778;2023-10-09T17:17:33;7.7;;;5.4;;
51491;SDS011;37569;50.548;8.778;2023-10-09T17:22:34;7.9;;;5.2;;
51491;SDS011;37569;50.548;8.778;2023-10-09T17:27:35;15.4;;;12.4;;
51491;SDS011;37569;50.548;8.778;2023-10-09T17:32:35;10.5;;;7.1;;
51491;SDS011;37569;50.548;8.778;2023-10-09T17:37:36;13.9;;;7.4;;
51491;SDS011;37569;50.548;8.778;2023-10-09T17:42:37;9.5;;;6.2;;
51491;SDS011;37569;50.548;8.778;2023-10-09T17:47:38;8.9;;;6.1;;
51491;SDS011;37569;50.548;8.778;2023-10-09T17:52:39;11.7;;;6.6;;
51491;SDS011;37569;50.548;8.778;2023-10-09T17:57:40;9.9;;;5.7;;
51491;SDS011;37569;50.548;8.778;2023-10-09T18:02:40;11.1;;;6.2;;
51491;SDS011;37569;50.548;8.778;2023-10-09T18:07:41;9.7;;;6.5;;
51491;SDS011;37569;50.548;8.778;2023-10-09T18:12:42;9.3;;;6.2;;
51491;SDS011;37569;50.548;8.778;2023-10-09T18:17:43;10.3;;;6.3;;
51491;SDS011;37569;50.548;8.778;2023-10-09T18:22:44;9.1;;;6;;
51491;SDS011;37569;50.548;8.778;2023-10-09T18:27:44;11.7;;;6.4;;
51491;SDS011;37569;50.548;8.778;2023-10-09T18:32:45;10.9;;;6.5;;
51491;SDS011;37569;50.548;8.778;2023-10-09T18:37:46;11;;;6.9;;
51491;SDS011;37569;50.548;8.778;2023-10-09T18:42:47;9.3;;;6.8;;
51491;SDS011;37569;50.548;8.778;2023-10-09T18:47:47;11;;;8.5;;
51491;SDS011;37569;50.548;8.778;2023-10-09T18:52:48;10.6;;;6.8;;
51491;SDS011;37569;50.548;8.778;2023-10-09T18:57:49;10.1;;;6.4;;
51491;SDS011;37569;50.548;8.778;2023-10-09T19:02:50;10.6;;;7.3;;
51491;SDS011;37569;50.548;8.778;2023-10-09T19:07:50;9.6;;;6.5;;
51491;SDS011;37569;50.548;8.778;2023-10-09T19:12:51;10;;;6.9;;
51491;SDS011;37569;50.548;8.778;2023-10-09T19:17:52;9.7;;;6.7;;
51491;SDS011;37569;50.548;8.778;2023-10-09T19:22:53;9.8;;;6.7;;
51491;SDS011;37569;50.548;8.778;2023-10-09T19:27:54;11.1;;;7.6;;
51491;SDS011;37569;50.548;8.778;2023-10-09T19:32:54;10.7;;;7.9;;
51491;SDS011;37569;50.548;8.778;2023-10-09T19:37:55;12;;;7.6;;
51491;SDS011;37569;50.548;8.778;2023-10-09T19:42:56;10.4;;;7.3;;
51491;SDS011;37569;50.548;8.778;2023-10-09T19:47:57;11.9;;;7.5;;
51491;SDS011;37569;50.548;8.778;2023-10-09T19:52:57;13.1;;;7.5;;
51491;SDS011;37569;50.548;8.778;2023-10-09T19:57:58;11.7;;;7.5;;
51491;SDS011;37569;50.548;8.778;2023-10-09T20:02:59;11.1;;;7.5;;
51491;SDS011;37569;50.548;8.778;2023-10-09T20:08:00;12.7;;;8;;
51491;SDS011;37569;50.548;8.778;2023-10-09T20:13:00;12;;;7.9;;
51491;SDS011;37569;50.548;8.778;2023-10-09T20:18:01;13.3;;;7.8;;
51491;SDS011;37569;50.548;8.778;2023-10-09T20:23:02;13.9;;;7.9;;
51491;SDS011;37569;50.548;8.778;2023-10-09T20:28:03;11.1;;;7.9;;
51491;SDS011;37569;50.548;8.778;2023-10-09T20:33:04;10.5;;;7.4;;
51491;SDS011;37569;50.548;8.778;2023-10-09T20:38:04;9.7;;;7.3;;
51491;SDS011;37569;50.548;8.778;2023-10-09T20:43:05;12;;;7.5;;
51491;SDS011;37569;50.548;8.778;2023-10-09T20:48:06;10.7;;;6.8;;
51491;SDS011;37569;50.548;8.778;2023-10-09T20:53:06;10.9;;;7.5;;
51491;SDS011;37569;50.548;8.778;2023-10-09T20:58:07;11.5;;;7.6;;
51491;SDS011;37569;50.548;8.778;2023-10-09T21:03:08;12.9;;;8.1;;
51491;SDS011;37569;50.548;8.778;2023-10-09T21:08:09;12.1;;;8.5;;
51491;SDS011;37569;50.548;8.778;2023-10-09T21:13:09;14.2;;;9.4;;
51491;SDS011;37569;50.548;8.778;2023-10-09T21:18:10;12.8;;;8;;
51491;SDS011;37569;50.548;8.778;2023-10-09T21:23:11;12.1;;;8.6;;
51491;SDS011;37569;50.548;8.778;2023-10-09T21:28:11;12.9;;;8.6;;
51491;SDS011;37569;50.548;8.778;2023-10-09T21:33:12;12.5;;;8.7;;
51491;SDS011;37569;50.548;8.778;2023-10-09T21:38:13;11.9;;;8.2;;
51491;SDS011;37569;50.548;8.778;2023-10-09T21:43:14;11.6;;;8.5;;
51491;SDS011;37569;50.548;8.778;2023-10-09T21:48:14;12.7;;;9.6;;
51491;SDS011;37569;50.548;8.778;2023-10-09T21:53:15;14.1;;;9.8;;
51491;SDS011;37569;50.548;8.778;2023-10-09T21:58:16;15.7;;;11.3;;
51491;SDS011;37569;50.548;8.778;2023-10-09T22:03:16;15.8;;;11;;
51491;SDS011;37569;50.548;8.778;2023-10-09T22:08:17;15.9;;;12;;
51491;SDS011;37569;50.548;8.778;2023-10-09T22:13:18;15.9;;;11.2;;
51491;SDS011;37569;50.548;8.778;2023-10-09T22:18:19;16.6;;;10.3;;
51491;SDS011;37569;50.548;8.778;2023-10-09T22:23:20;18.3;;;12;;
51491;SDS011;37569;50.548;8.778;2023-10-09T22:28:20;16.9;;;11.5;;
51491;SDS011;37569;50.548;8.778;2023-10-09T22:33:22;18.3;;;11.4;;
51491;SDS011;37569;50.548;8.778;2023-10-09T22:38:21;17.1;;;10.8;;
51491;SDS011;37569;50.548;8.778;2023-10-09T22:43:22;14.9;;;9.8;;
51491;SDS011;37569;50.548;8.778;2023-10-09T22:48:23;14.6;;;10.4;;
51491;SDS011;37569;50.548;8.778;2023-10-09T22:53:23;16.8;;;10.4;;
51491;SDS011;37569;50.548;8.778;2023-10-09T22:58:24;15.3;;;10.5;;
51491;SDS011;37569;50.548;8.778;2023-10-09T23:03:25;11.7;;;9.4;;
51491;SDS011;37569;50.548;8.778;2023-10-09T23:08:26;17.2;;;12;;
51491;SDS011;37569;50.548;8.778;2023-10-09T23:13:26;18.6;;;11.7;;
51491;SDS011;37569;50.548;8.778;2023-10-09T23:18:27;16.4;;;11.8;;
51491;SDS011;37569;50.548;8.778;2023-10-09T23:23:27;19.4;;;12.5;;
51491;SDS011;37569;50.548;8.778;2023-10-09T23:28:28;21;;;13;;
51491;SDS011;37569;50.548;8.778;2023-10-09T23:33:29;18.3;;;12.5;;
51491;SDS011;37569;50.548;8.778;2023-10-09T23:38:29;16.5;;;12;;
51491;SDS011;37569;50.548;8.778;2023-10-09T23:43:30;18.9;;;13.3;;
51491;SDS011;37569;50.548;8.778;2023-10-09T23:48:31;18.2;;;12.6;;
51491;SDS011;37569;50.548;8.778;2023-10-09T23:53:32;18.7;;;13;;
51491;SDS011;37569;50.548;8.778;2023-10-09T23:58:32;22.2;;;13.7;;
